sensor_id;sensor_type;location;lat;lon;timestamp;pressure;altitude;pressure_sealevel;temperature;humidity
24858;BME280;12935;50.782;6.074;2023-03-23T00:01:22;98361.50;;;12.02;100.00
24858;BME280;12935;50.782;6.074;2023-03-23T00:03:50;98355.09;;;11.92;100.00
24858;BME280;12935;50.782;6.074;2023-03-23T00:06:19;98353.38;;;11.98;100.00
24858;BME280;12935;50.782;6.074;2023-03-23T00:08:50;98362.78;;;11.97;100.00
24858;BME280;12935;50.782;6.074;2023-03-23T00:11:20;98358.53;;;11.96;100.00
24858;BME280;12935;50.782;6.074;2023-03-23T00:13:48;98367.41;;;12.00;100.00
24858;BME280;12935;50.782;6.074;2023-03-23T00:16:17;98356.91;;;11.82;100.00
24858;BME280;12935;50.782;6.074;2023-03-23T00:18:54;98376.06;;;11.82;100.00
24858;BME280;12935;50.782;6.074;2023-03-23T00:21:23;98363.41;;;11.88;100.00
24858;BME280;12935;50.782;6.074;2023-03-23T00:24:06;98367.41;;;12.00;100.00
24858;BME280;12935;50.782;6.074;2023-03-23T00:26:33;98369.53;;;12.09;100.00
24858;BME280;12935;50.782;6.074;2023-03-23T00:29:06;98346.09;;;12.08;100.00
24858;BME280;12935;50.782;6.074;2023-03-23T00:31:32;98349.69;;;12.05;100.00
24858;BME280;12935;50.782;6.074;2023-03-23T00:34:01;98350.31;;;11.96;100.00
24858;BME280;12935;50.782;6.074;2023-03-23T00:36:27;98360.91;;;11.94;100.00
24858;BME280;12935;50.782;6.074;2023-03-23T00:38:54;98354.41;;;11.88;100.00
24858;BME280;12935;50.782;6.074;2023-03-23T00:41:23;98351.41;;;11.82;100.00
24858;BME280;12935;50.782;6.074;2023-03-23T00:43:48;98352.00;;;11.74;100.00
24858;BME280;12935;50.782;6.074;2023-03-23T00:46:13;98354.16;;;11.66;100.00
24858;BME280;12935;50.782;6.074;2023-03-23T00:48:39;98359.41;;;11.77;100.00
24858;BME280;12935;50.782;6.074;2023-03-23T00:51:11;98347.25;;;11.78;100.00
24858;BME280;12935;50.782;6.074;2023-03-23T00:53:36;98355.69;;;11.83;100.00
24858;BME280;12935;50.782;6.074;2023-03-23T00:56:02;98359.91;;;11.88;100.00
24858;BME280;12935;50.782;6.074;2023-03-23T00:58:27;98371.44;;;11.96;100.00
24858;BME280;12935;50.782;6.074;2023-03-23T01:00:52;98350.00;;;11.78;100.00
24858;BME280;12935;50.782;6.074;2023-03-23T01:03:17;98361.16;;;11.67;100.00
24858;BME280;12935;50.782;6.074;2023-03-23T01:05:43;98346.28;;;11.68;100.00
24858;BME280;12935;50.782;6.074;2023-03-23T01:08:13;98345.28;;;11.78;100.00
24858;BME280;12935;50.782;6.074;2023-03-23T01:10:39;98350.13;;;11.71;100.00
24858;BME280;12935;50.782;6.074;2023-03-23T01:13:05;98370.91;;;11.68;100.00
24858;BME280;12935;50.782;6.074;2023-03-23T01:15:31;98380.84;;;11.62;100.00
24858;BME280;12935;50.782;6.074;2023-03-23T01:17:57;98339.38;;;11.64;100.00
24858;BME280;12935;50.782;6.074;2023-03-23T01:20:23;98334.00;;;11.60;100.00
24858;BME280;12935;50.782;6.074;2023-03-23T01:22:48;98357.66;;;11.50;100.00
24858;BME280;12935;50.782;6.074;2023-03-23T01:25:14;98337.50;;;11.60;100.00
24858;BME280;12935;50.782;6.074;2023-03-23T01:27:40;98326.34;;;11.68;100.00
24858;BME280;12935;50.782;6.074;2023-03-23T01:30:07;98345.84;;;11.70;100.00
24858;BME280;12935;50.782;6.074;2023-03-23T01:32:34;98341.84;;;11.74;100.00
24858;BME280;12935;50.782;6.074;2023-03-23T01:34:59;98315.31;;;11.71;100.00
24858;BME280;12935;50.782;6.074;2023-03-23T01:37:24;98312.69;;;11.51;100.00
24858;BME280;12935;50.782;6.074;2023-03-23T01:39:55;98309.88;;;11.55;100.00
24858;BME280;12935;50.782;6.074;2023-03-23T01:42:25;98317.03;;;11.65;100.00
24858;BME280;12935;50.782;6.074;2023-03-23T01:47:20;98289.50;;;11.72;100.00
24858;BME280;12935;50.782;6.074;2023-03-23T01:49:49;98281.94;;;11.64;100.00
24858;BME280;12935;50.782;6.074;2023-03-23T01:52:25;98293.34;;;11.75;100.00
24858;BME280;12935;50.782;6.074;2023-03-23T01:54:54;98267.69;;;11.69;100.00
24858;BME280;12935;50.782;6.074;2023-03-23T01:57:22;98261.22;;;11.63;100.00
24858;BME280;12935;50.782;6.074;2023-03-23T01:59:51;98234.91;;;11.52;100.00
24858;BME280;12935;50.782;6.074;2023-03-23T02:02:20;98268.00;;;11.58;100.00
24858;BME280;12935;50.782;6.074;2023-03-23T02:04:46;98265.50;;;11.64;100.00
24858;BME280;12935;50.782;6.074;2023-03-23T02:07:14;98236.31;;;11.73;100.00
24858;BME280;12935;50.782;6.074;2023-03-23T02:09:40;98263.28;;;11.58;100.00
24858;BME280;12935;50.782;6.074;2023-03-23T02:12:05;98268.78;;;11.42;100.00
24858;BME280;12935;50.782;6.074;2023-03-23T02:14:31;98281.94;;;11.47;100.00
24858;BME280;12935;50.782;6.074;2023-03-23T02:17:05;98278.00;;;11.65;100.00
24858;BME280;12935;50.782;6.074;2023-03-23T02:28:02;98301.09;;;11.47;100.00
24858;BME280;12935;50.782;6.074;2023-03-23T02:30:42;98295.44;;;11.54;100.00
24858;BME280;12935;50.782;6.074;2023-03-23T02:35:58;98297.66;;;11.59;100.00
24858;BME280;12935;50.782;6.074;2023-03-23T02:38:33;98287.41;;;11.47;100.00
24858;BME280;12935;50.782;6.074;2023-03-23T02:41:01;98279.69;;;11.58;100.00
24858;BME280;12935;50.782;6.074;2023-03-23T02:43:33;98268.06;;;11.54;100.00
24858;BME280;12935;50.782;6.074;2023-03-23T02:46:00;98266.03;;;11.58;100.00
24858;BME280;12935;50.782;6.074;2023-03-23T02:48:28;98266.31;;;11.48;100.00
24858;BME280;12935;50.782;6.074;2023-03-23T02:50:56;98267.78;;;11.65;100.00
24858;BME280;12935;50.782;6.074;2023-03-23T02:53:24;98272.41;;;11.68;100.00
24858;BME280;12935;50.782;6.074;2023-03-23T02:55:52;98265.00;;;11.52;100.00
24858;BME280;12935;50.782;6.074;2023-03-23T02:58:18;98258.50;;;11.63;100.00
24858;BME280;12935;50.782;6.074;2023-03-23T03:00:44;98284.38;;;11.74;100.00
24858;BME280;12935;50.782;6.074;2023-03-23T03:03:16;98273.44;;;11.74;100.00
24858;BME280;12935;50.782;6.074;2023-03-23T03:08:37;98265.31;;;11.71;100.00
24858;BME280;12935;50.782;6.074;2023-03-23T03:11:09;98272.41;;;11.68;100.00
24858;BME280;12935;50.782;6.074;2023-03-23T03:13:46;98272.06;;;11.66;100.00
24858;BME280;12935;50.782;6.074;2023-03-23T03:16:44;98273.38;;;11.78;100.00
24858;BME280;12935;50.782;6.074;2023-03-23T03:19:19;98268.91;;;11.68;100.00
24858;BME280;12935;50.782;6.074;2023-03-23T03:21:47;98268.03;;;11.71;100.00
24858;BME280;12935;50.782;6.074;2023-03-23T03:24:17;98267.91;;;11.62;100.00
24858;BME280;12935;50.782;6.074;2023-03-23T03:26:46;98259.91;;;11.67;100.00
24858;BME280;12935;50.782;6.074;2023-03-23T03:29:13;98261.53;;;11.81;100.00
24858;BME280;12935;50.782;6.074;2023-03-23T03:31:40;98260.94;;;11.73;100.00
24858;BME280;12935;50.782;6.074;2023-03-23T03:34:11;98257.19;;;11.83;100.00
24858;BME280;12935;50.782;6.074;2023-03-23T03:36:36;98238.22;;;11.76;100.00
24858;BME280;12935;50.782;6.074;2023-03-23T03:39:05;98238.00;;;11.83;100.00
24858;BME280;12935;50.782;6.074;2023-03-23T03:41:33;98234.16;;;11.81;100.00
24858;BME280;12935;50.782;6.074;2023-03-23T03:43:58;98250.59;;;11.81;100.00
24858;BME280;12935;50.782;6.074;2023-03-23T03:46:24;98251.63;;;11.71;100.00
24858;BME280;12935;50.782;6.074;2023-03-23T03:48:52;98253.78;;;11.63;100.00
24858;BME280;12935;50.782;6.074;2023-03-23T03:51:18;98257.72;;;11.62;100.00
24858;BME280;12935;50.782;6.074;2023-03-23T03:53:43;98249.31;;;11.69;100.00
24858;BME280;12935;50.782;6.074;2023-03-23T03:56:08;98252.81;;;11.70;100.00
24858;BME280;12935;50.782;6.074;2023-03-23T03:58:34;98252.44;;;11.55;100.00
24858;BME280;12935;50.782;6.074;2023-03-23T04:01:01;98257.72;;;11.62;100.00
24858;BME280;12935;50.782;6.074;2023-03-23T04:03:27;98246.00;;;11.62;100.00
24858;BME280;12935;50.782;6.074;2023-03-23T04:05:53;98261.25;;;11.46;100.00
24858;BME280;12935;50.782;6.074;2023-03-23T04:08:23;98255.94;;;11.55;100.00
24858;BME280;12935;50.782;6.074;2023-03-23T04:10:49;98258.59;;;11.59;100.00
24858;BME280;12935;50.782;6.074;2023-03-23T04:13:14;98256.28;;;11.57;100.00
24858;BME280;12935;50.782;6.074;2023-03-23T04:15:40;98263.84;;;11.66;100.00
24858;BME280;12935;50.782;6.074;2023-03-23T04:18:06;98270.38;;;11.56;100.00
24858;BME280;12935;50.782;6.074;2023-03-23T04:20:31;98269.44;;;11.63;100.00
24858;BME280;12935;50.782;6.074;2023-03-23T04:22:57;98264.19;;;11.68;100.00
24858;BME280;12935;50.782;6.074;2023-03-23T04:25:22;98279.69;;;11.58;100.00
24858;BME280;12935;50.782;6.074;2023-03-23T04:27:49;98286.38;;;11.57;100.00
24858;BME280;12935;50.782;6.074;2023-03-23T04:30:19;98300.63;;;11.65;100.00
24858;BME280;12935;50.782;6.074;2023-03-23T04:32:45;98289.69;;;11.65;100.00
24858;BME280;12935;50.782;6.074;2023-03-23T04:35:12;98291.75;;;11.61;100.00
24858;BME280;12935;50.782;6.074;2023-03-23T04:37:40;98293.31;;;11.46;100.00
24858;BME280;12935;50.782;6.074;2023-03-23T04:40:07;98296.63;;;11.53;100.00
24858;BME280;12935;50.782;6.074;2023-03-23T04:42:36;98308.94;;;11.45;100.00
24858;BME280;12935;50.782;6.074;2023-03-23T04:45:03;98290.94;;;11.32;100.00
24858;BME280;12935;50.782;6.074;2023-03-23T04:47:32;98300.13;;;11.38;100.00
24858;BME280;12935;50.782;6.074;2023-03-23T04:49:59;98300.41;;;11.43;100.00
24858;BME280;12935;50.782;6.074;2023-03-23T04:52:25;98299.56;;;11.46;100.00
24858;BME280;12935;50.782;6.074;2023-03-23T04:54:51;98302.19;;;11.50;100.00
24858;BME280;12935;50.782;6.074;2023-03-23T04:57:17;98303.06;;;11.47;100.00
24858;BME280;12935;50.782;6.074;2023-03-23T04:59:42;98296.47;;;11.44;100.00
24858;BME280;12935;50.782;6.074;2023-03-23T05:02:09;98303.91;;;11.28;100.00
24858;BME280;12935;50.782;6.074;2023-03-23T05:04:34;98304.34;;;11.42;100.00
24858;BME280;12935;50.782;6.074;2023-03-23T05:07:02;98291.56;;;11.52;100.00
24858;BME280;12935;50.782;6.074;2023-03-23T05:09:28;98294.84;;;11.47;100.00
24858;BME280;12935;50.782;6.074;2023-03-23T05:11:53;98312.28;;;11.37;100.00
24858;BME280;12935;50.782;6.074;2023-03-23T05:14:18;98307.41;;;11.28;100.00
24858;BME280;12935;50.782;6.074;2023-03-23T05:16:43;98305.25;;;11.19;100.00
24858;BME280;12935;50.782;6.074;2023-03-23T05:19:13;98305.59;;;11.21;100.00
24858;BME280;12935;50.782;6.074;2023-03-23T05:21:38;98314.00;;;11.31;100.00
24858;BME280;12935;50.782;6.074;2023-03-23T05:24:05;98313.13;;;11.34;100.00
24858;BME280;12935;50.782;6.074;2023-03-23T05:26:30;98299.03;;;11.35;100.00
24858;BME280;12935;50.782;6.074;2023-03-23T05:28:55;98307.75;;;11.30;100.00
24858;BME280;12935;50.782;6.074;2023-03-23T05:31:22;98303.72;;;11.35;100.00
24858;BME280;12935;50.782;6.074;2023-03-23T05:33:48;98298.78;;;11.30;100.00
24858;BME280;12935;50.782;6.074;2023-03-23T05:36:13;98299.91;;;11.32;100.00
24858;BME280;12935;50.782;6.074;2023-03-23T05:38:40;98306.81;;;11.37;100.00
24858;BME280;12935;50.782;6.074;2023-03-23T05:41:10;98307.00;;;11.30;100.00
24858;BME280;12935;50.782;6.074;2023-03-23T05:43:36;98310.56;;;11.27;100.00
24858;BME280;12935;50.782;6.074;2023-03-23T05:46:01;98307.06;;;11.26;100.00
24858;BME280;12935;50.782;6.074;2023-03-23T05:48:27;98302.78;;;11.25;100.00
24858;BME280;12935;50.782;6.074;2023-03-23T05:50:53;98317.56;;;11.11;100.00
24858;BME280;12935;50.782;6.074;2023-03-23T05:53:18;98320.81;;;11.22;100.00
24858;BME280;12935;50.782;6.074;2023-03-23T05:55:44;98315.44;;;11.35;100.00
24858;BME280;12935;50.782;6.074;2023-03-23T05:58:10;98304.91;;;11.34;100.00
24858;BME280;12935;50.782;6.074;2023-03-23T06:00:35;98318.50;;;11.21;100.00
24858;BME280;12935;50.782;6.074;2023-03-23T06:03:01;98325.34;;;11.13;100.00
24858;BME280;12935;50.782;6.074;2023-03-23T06:05:27;98337.06;;;11.30;100.00
24858;BME280;12935;50.782;6.074;2023-03-23T06:07:54;98324.59;;;11.29;100.00
24858;BME280;12935;50.782;6.074;2023-03-23T06:10:19;98312.38;;;11.17;100.00
24858;BME280;12935;50.782;6.074;2023-03-23T06:12:45;98326.22;;;11.26;100.00
24858;BME280;12935;50.782;6.074;2023-03-23T06:15:10;98322.69;;;11.25;100.00
24858;BME280;12935;50.782;6.074;2023-03-23T06:17:36;98325.94;;;11.20;100.00
24858;BME280;12935;50.782;6.074;2023-03-23T06:20:03;98328.69;;;11.37;100.00
24858;BME280;12935;50.782;6.074;2023-03-23T06:22:32;98327.56;;;11.34;100.00
24858;BME280;12935;50.782;6.074;2023-03-23T06:24:57;98333.31;;;11.40;100.00
24858;BME280;12935;50.782;6.074;2023-03-23T06:27:23;98341.00;;;11.45;100.00
24858;BME280;12935;50.782;6.074;2023-03-23T06:29:49;98337.31;;;11.51;100.00
24858;BME280;12935;50.782;6.074;2023-03-23T06:32:14;98351.59;;;11.59;100.00
24858;BME280;12935;50.782;6.074;2023-03-23T06:34:40;98361.00;;;11.58;100.00
24858;BME280;12935;50.782;6.074;2023-03-23T06:37:08;98349.78;;;11.69;100.00
24858;BME280;12935;50.782;6.074;2023-03-23T06:39:34;98354.16;;;11.66;100.00
24858;BME280;12935;50.782;6.074;2023-03-23T06:41:59;98358.25;;;11.74;100.00
24858;BME280;12935;50.782;6.074;2023-03-23T06:44:25;98349.28;;;11.57;100.00
24858;BME280;12935;50.782;6.074;2023-03-23T06:46:50;98349.72;;;11.56;100.00
24858;BME280;12935;50.782;6.074;2023-03-23T06:49:16;98359.97;;;11.68;100.00
24858;BME280;12935;50.782;6.074;2023-03-23T06:51:41;98372.38;;;11.73;100.00
24858;BME280;12935;50.782;6.074;2023-03-23T06:54:06;98373.13;;;11.57;100.00
24858;BME280;12935;50.782;6.074;2023-03-23T06:56:32;98376.91;;;11.63;100.00
24858;BME280;12935;50.782;6.074;2023-03-23T06:58:57;98372.88;;;11.84;100.00
24858;BME280;12935;50.782;6.074;2023-03-23T07:01:23;98373.28;;;11.99;100.00
24858;BME280;12935;50.782;6.074;2023-03-23T07:03:48;98363.22;;;11.96;100.00
24858;BME280;12935;50.782;6.074;2023-03-23T07:06:14;98373.22;;;11.86;100.00
24858;BME280;12935;50.782;6.074;2023-03-23T07:08:40;98371.25;;;11.86;100.00
24858;BME280;12935;50.782;6.074;2023-03-23T07:11:05;98383.16;;;11.96;100.00
24858;BME280;12935;50.782;6.074;2023-03-23T07:13:31;98370.31;;;12.09;100.00
24858;BME280;12935;50.782;6.074;2023-03-23T07:15:57;98358.53;;;11.96;100.00
24858;BME280;12935;50.782;6.074;2023-03-23T07:18:23;98367.47;;;11.97;100.00
24858;BME280;12935;50.782;6.074;2023-03-23T07:20:49;98355.78;;;11.96;100.00
24858;BME280;12935;50.782;6.074;2023-03-23T07:23:16;98355.69;;;12.00;100.00
24858;BME280;12935;50.782;6.074;2023-03-23T07:25:43;98359.44;;;12.06;100.00
24858;BME280;12935;50.782;6.074;2023-03-23T07:28:09;98361.25;;;11.96;100.00
24858;BME280;12935;50.782;6.074;2023-03-23T07:30:34;98368.38;;;11.93;100.00
24858;BME280;12935;50.782;6.074;2023-03-23T07:33:06;98368.09;;;12.04;100.00
24858;BME280;12935;50.782;6.074;2023-03-23T07:35:32;98375.00;;;12.09;100.00
24858;BME280;12935;50.782;6.074;2023-03-23T07:37:59;98366.63;;;12.28;100.00
24858;BME280;12935;50.782;6.074;2023-03-23T07:40:25;98364.50;;;12.36;100.00
24858;BME280;12935;50.782;6.074;2023-03-23T07:42:54;98365.34;;;12.33;100.00
24858;BME280;12935;50.782;6.074;2023-03-23T07:45:20;98366.06;;;12.21;100.00
24858;BME280;12935;50.782;6.074;2023-03-23T07:47:45;98379.13;;;12.29;100.00
24858;BME280;12935;50.782;6.074;2023-03-23T07:50:11;98374.03;;;12.15;100.00
24858;BME280;12935;50.782;6.074;2023-03-23T07:52:38;98360.09;;;12.26;100.00
24858;BME280;12935;50.782;6.074;2023-03-23T07:55:05;98369.16;;;12.23;100.00
24858;BME280;12935;50.782;6.074;2023-03-23T07:57:30;98381.22;;;12.25;100.00
24858;BME280;12935;50.782;6.074;2023-03-23T07:59:57;98373.13;;;12.35;100.00
24858;BME280;12935;50.782;6.074;2023-03-23T08:02:24;98389.28;;;12.45;100.00
24858;BME280;12935;50.782;6.074;2023-03-23T08:04:49;98387.03;;;12.56;100.00
24858;BME280;12935;50.782;6.074;2023-03-23T08:07:16;98381.34;;;12.35;100.00
24858;BME280;12935;50.782;6.074;2023-03-23T08:09:43;98388.84;;;12.47;100.00
24858;BME280;12935;50.782;6.074;2023-03-23T08:12:08;98394.88;;;12.42;100.00
24858;BME280;12935;50.782;6.074;2023-03-23T08:14:33;98403.28;;;12.35;100.00
24858;BME280;12935;50.782;6.074;2023-03-23T08:16:59;98402.75;;;12.40;100.00
24858;BME280;12935;50.782;6.074;2023-03-23T08:19:25;98400.06;;;12.52;100.00
24858;BME280;12935;50.782;6.074;2023-03-23T08:21:51;98399.47;;;12.45;100.00
24858;BME280;12935;50.782;6.074;2023-03-23T08:24:17;98410.16;;;12.55;100.00
24858;BME280;12935;50.782;6.074;2023-03-23T08:26:42;98409.22;;;12.46;100.00
24858;BME280;12935;50.782;6.074;2023-03-23T08:29:08;98434.47;;;12.53;100.00
24858;BME280;12935;50.782;6.074;2023-03-23T08:31:34;98408.22;;;12.40;100.00
24858;BME280;12935;50.782;6.074;2023-03-23T08:34:03;98414.66;;;12.62;100.00
24858;BME280;12935;50.782;6.074;2023-03-23T08:36:33;98429.41;;;12.81;100.00
24858;BME280;12935;50.782;6.074;2023-03-23T08:38:59;98434.84;;;12.68;100.00
24858;BME280;12935;50.782;6.074;2023-03-23T08:41:25;98432.63;;;12.63;100.00
24858;BME280;12935;50.782;6.074;2023-03-23T08:43:50;98435.75;;;12.78;100.00
24858;BME280;12935;50.782;6.074;2023-03-23T08:46:17;98424.13;;;12.74;100.00
24858;BME280;12935;50.782;6.074;2023-03-23T08:48:44;98425.06;;;12.54;100.00
24858;BME280;12935;50.782;6.074;2023-03-23T08:51:10;98412.50;;;12.70;100.00
24858;BME280;12935;50.782;6.074;2023-03-23T08:53:36;98416.47;;;12.81;100.00
24858;BME280;12935;50.782;6.074;2023-03-23T08:56:10;98408.94;;;12.56;100.00
24858;BME280;12935;50.782;6.074;2023-03-23T08:58:37;98402.84;;;12.78;100.00
24858;BME280;12935;50.782;6.074;2023-03-23T09:01:03;98414.22;;;12.63;100.00
24858;BME280;12935;50.782;6.074;2023-03-23T09:03:30;98417.91;;;12.86;100.00
24858;BME280;12935;50.782;6.074;2023-03-23T09:06:05;98431.25;;;12.71;100.00
24858;BME280;12935;50.782;6.074;2023-03-23T09:08:31;98432.41;;;12.99;100.00
24858;BME280;12935;50.782;6.074;2023-03-23T09:11:04;98414.59;;;13.20;100.00
24858;BME280;12935;50.782;6.074;2023-03-23T09:13:30;98430.63;;;12.92;100.00
24858;BME280;12935;50.782;6.074;2023-03-23T09:15:56;98445.78;;;12.97;100.00
24858;BME280;12935;50.782;6.074;2023-03-23T09:18:22;98439.63;;;12.93;100.00
24858;BME280;12935;50.782;6.074;2023-03-23T09:20:50;98438.66;;;12.99;100.00
24858;BME280;12935;50.782;6.074;2023-03-23T09:23:16;98439.28;;;13.20;100.00
24858;BME280;12935;50.782;6.074;2023-03-23T09:25:41;98439.81;;;13.15;100.00
24858;BME280;12935;50.782;6.074;2023-03-23T09:28:06;98444.88;;;13.16;100.00
24858;BME280;12935;50.782;6.074;2023-03-23T09:30:33;98445.72;;;12.72;100.00
24858;BME280;12935;50.782;6.074;2023-03-23T09:33:01;98446.53;;;12.85;100.00
24858;BME280;12935;50.782;6.074;2023-03-23T09:35:27;98439.53;;;12.96;100.00
24858;BME280;12935;50.782;6.074;2023-03-23T09:37:53;98446.69;;;13.07;100.00
24858;BME280;12935;50.782;6.074;2023-03-23T09:40:23;98432.44;;;13.12;100.00
24858;BME280;12935;50.782;6.074;2023-03-23T09:45:53;98428.16;;;13.11;100.00
24858;BME280;12935;50.782;6.074;2023-03-23T09:48:32;98436.13;;;13.21;100.00
24858;BME280;12935;50.782;6.074;2023-03-23T09:51:15;98436.91;;;13.34;100.00
24858;BME280;12935;50.782;6.074;2023-03-23T09:53:47;98450.91;;;13.24;100.00
24858;BME280;12935;50.782;6.074;2023-03-23T09:56:15;98449.72;;;13.25;100.00
24858;BME280;12935;50.782;6.074;2023-03-23T09:58:46;98451.28;;;12.97;100.00
24858;BME280;12935;50.782;6.074;2023-03-23T10:01:17;98474.19;;;12.90;100.00
24858;BME280;12935;50.782;6.074;2023-03-23T10:03:46;98470.91;;;12.95;100.00
24858;BME280;12935;50.782;6.074;2023-03-23T10:06:17;98474.94;;;12.91;100.00
24858;BME280;12935;50.782;6.074;2023-03-23T10:08:51;98469.16;;;13.02;100.00
24858;BME280;12935;50.782;6.074;2023-03-23T10:14:37;98460.91;;;13.30;100.00
24858;BME280;12935;50.782;6.074;2023-03-23T10:19:37;98451.59;;;13.91;100.00
24858;BME280;12935;50.782;6.074;2023-03-23T10:22:11;98461.25;;;13.58;100.00
24858;BME280;12935;50.782;6.074;2023-03-23T10:25:14;98461.03;;;13.78;100.00
24858;BME280;12935;50.782;6.074;2023-03-23T10:27:50;98469.63;;;13.80;100.00
24858;BME280;12935;50.782;6.074;2023-03-23T10:30:23;98461.72;;;13.69;100.00
24858;BME280;12935;50.782;6.074;2023-03-23T10:33:03;98481.56;;;13.48;100.00
24858;BME280;12935;50.782;6.074;2023-03-23T10:35:37;98471.47;;;13.83;100.00
24858;BME280;12935;50.782;6.074;2023-03-23T10:38:13;98463.75;;;14.03;100.00
24858;BME280;12935;50.782;6.074;2023-03-23T10:40:48;98453.69;;;13.75;100.00
24858;BME280;12935;50.782;6.074;2023-03-23T10:43:14;98472.25;;;13.83;100.00
24858;BME280;12935;50.782;6.074;2023-03-23T10:45:41;98470.38;;;13.93;100.00
24858;BME280;12935;50.782;6.074;2023-03-23T10:48:22;98479.50;;;13.64;100.00
24858;BME280;12935;50.782;6.074;2023-03-23T10:50:52;98475.97;;;13.77;100.00
24858;BME280;12935;50.782;6.074;2023-03-23T10:53:31;98482.34;;;13.74;100.00
24858;BME280;12935;50.782;6.074;2023-03-23T10:55:58;98480.81;;;13.60;100.00
24858;BME280;12935;50.782;6.074;2023-03-23T10:58:29;98499.91;;;13.63;100.00
24858;BME280;12935;50.782;6.074;2023-03-23T11:00:55;98483.34;;;13.67;100.00
24858;BME280;12935;50.782;6.074;2023-03-23T11:03:42;98481.69;;;13.95;100.00
24858;BME280;12935;50.782;6.074;2023-03-23T11:06:10;98470.50;;;13.64;100.00
24858;BME280;12935;50.782;6.074;2023-03-23T11:08:52;98474.78;;;13.52;100.00
24858;BME280;12935;50.782;6.074;2023-03-23T11:11:25;98485.41;;;13.76;100.00
24858;BME280;12935;50.782;6.074;2023-03-23T11:13:57;98484.22;;;13.89;100.00
24858;BME280;12935;50.782;6.074;2023-03-23T11:16:34;98476.53;;;13.84;100.00
24858;BME280;12935;50.782;6.074;2023-03-23T11:19:15;98496.97;;;13.83;100.00
24858;BME280;12935;50.782;6.074;2023-03-23T11:21:47;98484.22;;;13.64;100.00
24858;BME280;12935;50.782;6.074;2023-03-23T11:24:14;98482.91;;;13.94;100.00
24858;BME280;12935;50.782;6.074;2023-03-23T11:26:43;98488.41;;;13.81;100.00
24858;BME280;12935;50.782;6.074;2023-03-23T11:29:16;98476.41;;;14.00;100.00
24858;BME280;12935;50.782;6.074;2023-03-23T11:31:44;98478.41;;;13.62;100.00
24858;BME280;12935;50.782;6.074;2023-03-23T11:34:20;98475.09;;;13.80;100.00
24858;BME280;12935;50.782;6.074;2023-03-23T11:36:53;98472.94;;;14.47;100.00
24858;BME280;12935;50.782;6.074;2023-03-23T11:39:31;98458.44;;;14.68;100.00
24858;BME280;12935;50.782;6.074;2023-03-23T11:41:58;98477.19;;;15.26;100.00
24858;BME280;12935;50.782;6.074;2023-03-23T11:44:32;98477.00;;;15.83;100.00
24858;BME280;12935;50.782;6.074;2023-03-23T11:47:24;98484.63;;;15.69;100.00
24858;BME280;12935;50.782;6.074;2023-03-23T11:52:30;98496.50;;;15.14;100.00
24858;BME280;12935;50.782;6.074;2023-03-23T11:55:21;98502.97;;;15.20;100.00
24858;BME280;12935;50.782;6.074;2023-03-23T11:57:48;98486.81;;;14.65;100.00
24858;BME280;12935;50.782;6.074;2023-03-23T12:00:19;98471.28;;;14.37;100.00
24858;BME280;12935;50.782;6.074;2023-03-23T12:05:59;98467.19;;;14.54;100.00
24858;BME280;12935;50.782;6.074;2023-03-23T12:12:22;98479.81;;;14.86;100.00
24858;BME280;12935;50.782;6.074;2023-03-23T12:15:07;98470.88;;;14.95;100.00
24858;BME280;12935;50.782;6.074;2023-03-23T12:17:50;98472.19;;;15.12;100.00
24858;BME280;12935;50.782;6.074;2023-03-23T12:20:35;98463.25;;;14.99;100.00
24858;BME280;12935;50.782;6.074;2023-03-23T12:23:17;98484.34;;;14.58;100.00
24858;BME280;12935;50.782;6.074;2023-03-23T12:29:18;98473.38;;;14.46;100.00
24858;BME280;12935;50.782;6.074;2023-03-23T12:32:17;98484.50;;;14.42;100.00
24858;BME280;12935;50.782;6.074;2023-03-23T12:40:06;98480.88;;;14.20;100.00
24858;BME280;12935;50.782;6.074;2023-03-23T12:42:47;98502.75;;;14.23;100.00
24858;BME280;12935;50.782;6.074;2023-03-23T12:45:41;98508.50;;;13.78;100.00
24858;BME280;12935;50.782;6.074;2023-03-23T12:48:26;98524.41;;;13.83;100.00
24858;BME280;12935;50.782;6.074;2023-03-23T12:51:15;98528.66;;;13.46;100.00
24858;BME280;12935;50.782;6.074;2023-03-23T12:54:11;98529.97;;;13.42;100.00
24858;BME280;12935;50.782;6.074;2023-03-23T12:56:59;98512.47;;;12.94;100.00
24858;BME280;12935;50.782;6.074;2023-03-23T12:59:48;98496.03;;;13.07;100.00
24858;BME280;12935;50.782;6.074;2023-03-23T13:02:35;98484.94;;;13.26;100.00
24858;BME280;12935;50.782;6.074;2023-03-23T13:05:26;98495.97;;;13.52;100.00
24858;BME280;12935;50.782;6.074;2023-03-23T13:08:03;98483.66;;;13.56;100.00
24858;BME280;12935;50.782;6.074;2023-03-23T13:10:38;98476.53;;;13.84;100.00
24858;BME280;12935;50.782;6.074;2023-03-23T13:13:12;98464.50;;;14.29;100.00
24858;BME280;12935;50.782;6.074;2023-03-23T13:15:49;98465.75;;;16.08;100.00
24858;BME280;12935;50.782;6.074;2023-03-23T13:23:44;98471.53;;;16.77;100.00
24858;BME280;12935;50.782;6.074;2023-03-23T13:26:18;98472.97;;;19.18;89.48
24858;BME280;12935;50.782;6.074;2023-03-23T13:31:29;98457.81;;;22.68;55.64
24858;BME280;12935;50.782;6.074;2023-03-23T13:34:40;98464.00;;;22.35;59.51
24858;BME280;12935;50.782;6.074;2023-03-23T13:37:06;98464.75;;;21.93;56.35
24858;BME280;12935;50.782;6.074;2023-03-23T13:39:57;98457.31;;;19.45;65.76
24858;BME280;12935;50.782;6.074;2023-03-23T13:42:26;98475.69;;;17.51;76.62
24858;BME280;12935;50.782;6.074;2023-03-23T13:50:01;98486.69;;;16.73;87.22
24858;BME280;12935;50.782;6.074;2023-03-23T13:53:12;98498.25;;;15.73;93.94
24858;BME280;12935;50.782;6.074;2023-03-23T13:55:49;98496.53;;;15.44;99.70
24858;BME280;12935;50.782;6.074;2023-03-23T13:58:24;98499.16;;;15.48;99.60
24858;BME280;12935;50.782;6.074;2023-03-23T14:01:08;98473.66;;;15.26;100.00